West Concord, Minnesota
Current Conditions -  °F | °C
As of 3:34 PM on Friday 24 Oct 2014 (Local Time) from KTOB Reporting Station
Haze Haze  
Wind Chill: 59°   Ceiling: 600
Heat Index: 59°   Visibility: 5mi
Dew Point: 57°   Wind: 8mph
Humidity: 94%   Direction: 210°SSW
Pressure: 29.86"   Gusts: NA
Location:  44.15°N, 92.9°W
Report Text: KTOB 242034Z AUTO 21007KT 5SM BR BKN006 OVC013 15/14 A2986 RMK AO2
Loading
Personal Weather Stations






























Interactive Weather Map
Tropical Storm Tracking
New forecast layout! Learn more

10-Day Weather Forecast

Advertisements
Track Severe Weather on mobile